sensor_id;sensor_type;location;lat;lon;timestamp;P1;durP1;ratioP1;P2;durP2;ratioP2
15486;SDS011;7845;53.698;10.078;2024-02-26T00:01:45;15.33;;;15.00;;
15486;SDS011;7845;53.698;10.078;2024-02-26T00:04:11;14.33;;;13.67;;
15486;SDS011;7845;53.698;10.078;2024-02-26T00:06:37;13.50;;;13.00;;
15486;SDS011;7845;53.698;10.078;2024-02-26T00:09:06;15.25;;;15.00;;
15486;SDS011;7845;53.698;10.078;2024-02-26T00:11:31;16.00;;;15.00;;
15486;SDS011;7845;53.698;10.078;2024-02-26T00:13:57;14.67;;;14.33;;
15486;SDS011;7845;53.698;10.078;2024-02-26T00:16:23;16.33;;;13.00;;
15486;SDS011;7845;53.698;10.078;2024-02-26T00:18:48;10.67;;;10.67;;
15486;SDS011;7845;53.698;10.078;2024-02-26T00:21:13;13.67;;;11.33;;
15486;SDS011;7845;53.698;10.078;2024-02-26T00:23:38;14.33;;;13.67;;
15486;SDS011;7845;53.698;10.078;2024-02-26T00:26:04;15.33;;;14.67;;
15486;SDS011;7845;53.698;10.078;2024-02-26T00:28:29;11.33;;;10.00;;
15486;SDS011;7845;53.698;10.078;2024-02-26T00:30:54;15.00;;;14.00;;
15486;SDS011;7845;53.698;10.078;2024-02-26T00:33:21;14.67;;;12.67;;
15486;SDS011;7845;53.698;10.078;2024-02-26T00:35:47;12.00;;;12.00;;
15486;SDS011;7845;53.698;10.078;2024-02-26T00:38:12;11.67;;;11.33;;
15486;SDS011;7845;53.698;10.078;2024-02-26T00:40:38;9.00;;;9.00;;
15486;SDS011;7845;53.698;10.078;2024-02-26T00:43:03;9.67;;;9.00;;
15486;SDS011;7845;53.698;10.078;2024-02-26T00:45:28;11.33;;;9.67;;
15486;SDS011;7845;53.698;10.078;2024-02-26T00:47:54;11.67;;;11.33;;
15486;SDS011;7845;53.698;10.078;2024-02-26T00:50:20;10.00;;;10.00;;
15486;SDS011;7845;53.698;10.078;2024-02-26T00:52:46;11.25;;;10.00;;
15486;SDS011;7845;53.698;10.078;2024-02-26T00:55:11;13.50;;;13.50;;
15486;SDS011;7845;53.698;10.078;2024-02-26T00:57:36;16.00;;;16.00;;
15486;SDS011;7845;53.698;10.078;2024-02-26T01:00:01;6.67;;;4.00;;
15486;SDS011;7845;53.698;10.078;2024-02-26T01:02:27;9.00;;;9.00;;
15486;SDS011;7845;53.698;10.078;2024-02-26T01:04:52;0.00;;;0.00;;
15486;SDS011;7845;53.698;10.078;2024-02-26T01:07:18;7.67;;;6.00;;
15486;SDS011;7845;53.698;10.078;2024-02-26T01:09:44;6.33;;;6.00;;
15486;SDS011;7845;53.698;10.078;2024-02-26T01:12:09;9.00;;;7.00;;
15486;SDS011;7845;53.698;10.078;2024-02-26T01:14:34;10.00;;;9.75;;
15486;SDS011;7845;53.698;10.078;2024-02-26T01:17:00;13.25;;;12.25;;
15486;SDS011;7845;53.698;10.078;2024-02-26T01:19:25;14.00;;;10.50;;
15486;SDS011;7845;53.698;10.078;2024-02-26T01:21:50;12.00;;;10.00;;
15486;SDS011;7845;53.698;10.078;2024-02-26T01:24:15;8.75;;;8.75;;
15486;SDS011;7845;53.698;10.078;2024-02-26T01:26:41;12.00;;;9.33;;
15486;SDS011;7845;53.698;10.078;2024-02-26T01:29:06;12.25;;;12.25;;
15486;SDS011;7845;53.698;10.078;2024-02-26T01:31:32;10.75;;;10.75;;
15486;SDS011;7845;53.698;10.078;2024-02-26T01:33:57;8.00;;;8.00;;
15486;SDS011;7845;53.698;10.078;2024-02-26T01:36:22;6.33;;;4.00;;
15486;SDS011;7845;53.698;10.078;2024-02-26T01:38:48;9.00;;;7.50;;
15486;SDS011;7845;53.698;10.078;2024-02-26T01:41:13;9.25;;;7.00;;
15486;SDS011;7845;53.698;10.078;2024-02-26T01:43:39;7.00;;;7.00;;
15486;SDS011;7845;53.698;10.078;2024-02-26T01:46:04;12.00;;;10.67;;
15486;SDS011;7845;53.698;10.078;2024-02-26T01:48:31;12.50;;;12.00;;
15486;SDS011;7845;53.698;10.078;2024-02-26T01:50:56;9.33;;;9.00;;
15486;SDS011;7845;53.698;10.078;2024-02-26T01:53:22;9.00;;;9.00;;
15486;SDS011;7845;53.698;10.078;2024-02-26T01:55:48;10.00;;;10.00;;
15486;SDS011;7845;53.698;10.078;2024-02-26T01:58:13;10.00;;;9.25;;
15486;SDS011;7845;53.698;10.078;2024-02-26T02:00:39;10.75;;;8.50;;
15486;SDS011;7845;53.698;10.078;2024-02-26T02:03:04;7.50;;;7.50;;
15486;SDS011;7845;53.698;10.078;2024-02-26T02:05:30;8.50;;;8.00;;
15486;SDS011;7845;53.698;10.078;2024-02-26T02:07:56;9.00;;;9.00;;
15486;SDS011;7845;53.698;10.078;2024-02-26T02:10:22;9.00;;;9.00;;
15486;SDS011;7845;53.698;10.078;2024-02-26T02:12:50;9.25;;;9.25;;
15486;SDS011;7845;53.698;10.078;2024-02-26T02:15:15;12.75;;;11.00;;
15486;SDS011;7845;53.698;10.078;2024-02-26T02:17:40;15.50;;;15.00;;
15486;SDS011;7845;53.698;10.078;2024-02-26T02:20:15;9.00;;;7.50;;
15486;SDS011;7845;53.698;10.078;2024-02-26T02:22:43;11.50;;;10.00;;
15486;SDS011;7845;53.698;10.078;2024-02-26T02:25:09;12.00;;;11.00;;
15486;SDS011;7845;53.698;10.078;2024-02-26T02:27:34;12.25;;;11.00;;
15486;SDS011;7845;53.698;10.078;2024-02-26T02:30:00;11.50;;;10.50;;
15486;SDS011;7845;53.698;10.078;2024-02-26T02:32:26;10.00;;;10.00;;
15486;SDS011;7845;53.698;10.078;2024-02-26T02:34:52;4.00;;;4.00;;
15486;SDS011;7845;53.698;10.078;2024-02-26T02:37:18;15.00;;;15.00;;
15486;SDS011;7845;53.698;10.078;2024-02-26T02:39:43;10.00;;;10.00;;
15486;SDS011;7845;53.698;10.078;2024-02-26T02:42:08;10.00;;;9.00;;
15486;SDS011;7845;53.698;10.078;2024-02-26T02:44:34;14.50;;;13.00;;
15486;SDS011;7845;53.698;10.078;2024-02-26T02:46:59;13.00;;;12.00;;
15486;SDS011;7845;53.698;10.078;2024-02-26T02:49:24;14.00;;;12.50;;
15486;SDS011;7845;53.698;10.078;2024-02-26T02:51:49;13.00;;;12.75;;
15486;SDS011;7845;53.698;10.078;2024-02-26T02:54:15;12.00;;;12.00;;
15486;SDS011;7845;53.698;10.078;2024-02-26T02:56:40;11.75;;;9.50;;
15486;SDS011;7845;53.698;10.078;2024-02-26T02:59:05;12.25;;;12.00;;
15486;SDS011;7845;53.698;10.078;2024-02-26T03:01:31;11.50;;;10.00;;
15486;SDS011;7845;53.698;10.078;2024-02-26T03:03:56;10.25;;;10.25;;
15486;SDS011;7845;53.698;10.078;2024-02-26T03:06:21;12.25;;;11.00;;
15486;SDS011;7845;53.698;10.078;2024-02-26T03:08:48;13.50;;;12.25;;
15486;SDS011;7845;53.698;10.078;2024-02-26T03:11:13;11.50;;;11.00;;
15486;SDS011;7845;53.698;10.078;2024-02-26T03:13:40;12.50;;;12.50;;
15486;SDS011;7845;53.698;10.078;2024-02-26T03:16:05;14.50;;;12.50;;
15486;SDS011;7845;53.698;10.078;2024-02-26T03:18:31;15.25;;;15.00;;
15486;SDS011;7845;53.698;10.078;2024-02-26T03:20:56;22.25;;;18.75;;
15486;SDS011;7845;53.698;10.078;2024-02-26T03:23:21;13.25;;;12.25;;
15486;SDS011;7845;53.698;10.078;2024-02-26T03:25:47;15.25;;;15.25;;
15486;SDS011;7845;53.698;10.078;2024-02-26T03:28:12;12.50;;;12.25;;
15486;SDS011;7845;53.698;10.078;2024-02-26T03:30:38;14.00;;;13.50;;
15486;SDS011;7845;53.698;10.078;2024-02-26T03:33:03;13.75;;;12.00;;
15486;SDS011;7845;53.698;10.078;2024-02-26T03:35:28;18.00;;;15.00;;
15486;SDS011;7845;53.698;10.078;2024-02-26T03:37:54;18.50;;;18.00;;
15486;SDS011;7845;53.698;10.078;2024-02-26T03:40:19;21.25;;;19.50;;
15486;SDS011;7845;53.698;10.078;2024-02-26T03:42:45;17.50;;;14.00;;
15486;SDS011;7845;53.698;10.078;2024-02-26T03:45:13;13.75;;;13.50;;
15486;SDS011;7845;53.698;10.078;2024-02-26T03:47:38;15.00;;;14.00;;
15486;SDS011;7845;53.698;10.078;2024-02-26T03:50:07;18.00;;;15.50;;
15486;SDS011;7845;53.698;10.078;2024-02-26T03:52:32;12.00;;;12.00;;
15486;SDS011;7845;53.698;10.078;2024-02-26T03:54:58;12.50;;;11.00;;
15486;SDS011;7845;53.698;10.078;2024-02-26T03:57:24;14.00;;;12.50;;
15486;SDS011;7845;53.698;10.078;2024-02-26T03:59:49;12.75;;;11.50;;
15486;SDS011;7845;53.698;10.078;2024-02-26T04:02:14;14.00;;;12.00;;
15486;SDS011;7845;53.698;10.078;2024-02-26T04:04:41;13.00;;;12.75;;
15486;SDS011;7845;53.698;10.078;2024-02-26T04:07:06;14.50;;;13.75;;
15486;SDS011;7845;53.698;10.078;2024-02-26T04:09:32;14.50;;;13.00;;
15486;SDS011;7845;53.698;10.078;2024-02-26T04:11:57;18.00;;;15.25;;
15486;SDS011;7845;53.698;10.078;2024-02-26T04:14:22;16.50;;;14.75;;
15486;SDS011;7845;53.698;10.078;2024-02-26T04:16:47;18.75;;;15.75;;
15486;SDS011;7845;53.698;10.078;2024-02-26T04:19:16;10.00;;;10.00;;
15486;SDS011;7845;53.698;10.078;2024-02-26T04:21:42;18.75;;;16.50;;
15486;SDS011;7845;53.698;10.078;2024-02-26T04:24:07;14.50;;;14.00;;
15486;SDS011;7845;53.698;10.078;2024-02-26T04:26:32;13.50;;;13.50;;
15486;SDS011;7845;53.698;10.078;2024-02-26T04:28:58;13.00;;;13.00;;
15486;SDS011;7845;53.698;10.078;2024-02-26T04:31:23;18.75;;;16.25;;
15486;SDS011;7845;53.698;10.078;2024-02-26T04:33:48;14.00;;;11.00;;
15486;SDS011;7845;53.698;10.078;2024-02-26T04:36:14;14.00;;;14.00;;
15486;SDS011;7845;53.698;10.078;2024-02-26T04:38:45;16.75;;;16.00;;
15486;SDS011;7845;53.698;10.078;2024-02-26T04:41:11;14.00;;;13.00;;
15486;SDS011;7845;53.698;10.078;2024-02-26T04:43:37;15.00;;;13.00;;
15486;SDS011;7845;53.698;10.078;2024-02-26T04:46:09;15.25;;;13.25;;
15486;SDS011;7845;53.698;10.078;2024-02-26T04:48:35;10.00;;;9.50;;
15486;SDS011;7845;53.698;10.078;2024-02-26T04:51:01;13.25;;;13.25;;
15486;SDS011;7845;53.698;10.078;2024-02-26T04:53:27;13.75;;;12.75;;
15486;SDS011;7845;53.698;10.078;2024-02-26T04:55:52;12.75;;;12.25;;
15486;SDS011;7845;53.698;10.078;2024-02-26T04:58:17;15.25;;;14.50;;
15486;SDS011;7845;53.698;10.078;2024-02-26T05:00:42;17.00;;;16.00;;
15486;SDS011;7845;53.698;10.078;2024-02-26T05:03:08;19.00;;;17.50;;
15486;SDS011;7845;53.698;10.078;2024-02-26T05:05:38;19.00;;;15.75;;
15486;SDS011;7845;53.698;10.078;2024-02-26T05:08:03;13.00;;;12.25;;
15486;SDS011;7845;53.698;10.078;2024-02-26T05:10:28;14.00;;;13.50;;
15486;SDS011;7845;53.698;10.078;2024-02-26T05:12:54;15.50;;;13.75;;
15486;SDS011;7845;53.698;10.078;2024-02-26T05:15:19;12.75;;;10.00;;
15486;SDS011;7845;53.698;10.078;2024-02-26T05:17:44;12.25;;;12.25;;
15486;SDS011;7845;53.698;10.078;2024-02-26T05:20:10;13.00;;;12.00;;
15486;SDS011;7845;53.698;10.078;2024-02-26T05:22:35;15.75;;;15.25;;
15486;SDS011;7845;53.698;10.078;2024-02-26T05:25:02;15.00;;;14.00;;
15486;SDS011;7845;53.698;10.078;2024-02-26T05:27:28;13.50;;;13.00;;
15486;SDS011;7845;53.698;10.078;2024-02-26T05:29:53;16.00;;;13.00;;
15486;SDS011;7845;53.698;10.078;2024-02-26T05:32:19;15.75;;;15.00;;
15486;SDS011;7845;53.698;10.078;2024-02-26T05:34:44;14.50;;;14.50;;
15486;SDS011;7845;53.698;10.078;2024-02-26T05:37:10;15.00;;;14.50;;
15486;SDS011;7845;53.698;10.078;2024-02-26T05:39:36;17.00;;;16.00;;
15486;SDS011;7845;53.698;10.078;2024-02-26T05:42:01;17.00;;;16.00;;
15486;SDS011;7845;53.698;10.078;2024-02-26T05:44:27;20.50;;;19.00;;
15486;SDS011;7845;53.698;10.078;2024-02-26T05:46:52;15.00;;;15.00;;
15486;SDS011;7845;53.698;10.078;2024-02-26T05:49:18;14.00;;;13.00;;
15486;SDS011;7845;53.698;10.078;2024-02-26T05:51:43;15.75;;;15.00;;
15486;SDS011;7845;53.698;10.078;2024-02-26T05:54:08;15.25;;;14.00;;
15486;SDS011;7845;53.698;10.078;2024-02-26T05:56:35;19.00;;;18.50;;
15486;SDS011;7845;53.698;10.078;2024-02-26T05:59:00;17.00;;;15.00;;
15486;SDS011;7845;53.698;10.078;2024-02-26T06:01:25;21.50;;;20.50;;
15486;SDS011;7845;53.698;10.078;2024-02-26T06:03:51;15.00;;;12.25;;
15486;SDS011;7845;53.698;10.078;2024-02-26T06:06:16;17.50;;;15.00;;
15486;SDS011;7845;53.698;10.078;2024-02-26T06:08:42;18.50;;;13.00;;
15486;SDS011;7845;53.698;10.078;2024-02-26T06:11:08;15.50;;;15.25;;
15486;SDS011;7845;53.698;10.078;2024-02-26T06:13:34;18.00;;;16.50;;
15486;SDS011;7845;53.698;10.078;2024-02-26T06:16:00;17.75;;;14.75;;
15486;SDS011;7845;53.698;10.078;2024-02-26T06:18:25;14.50;;;14.50;;
15486;SDS011;7845;53.698;10.078;2024-02-26T06:20:50;15.50;;;14.75;;
15486;SDS011;7845;53.698;10.078;2024-02-26T06:23:16;15.25;;;15.00;;
15486;SDS011;7845;53.698;10.078;2024-02-26T06:25:41;16.25;;;13.25;;
15486;SDS011;7845;53.698;10.078;2024-02-26T06:28:07;16.00;;;14.25;;
15486;SDS011;7845;53.698;10.078;2024-02-26T06:30:33;20.00;;;18.00;;
15486;SDS011;7845;53.698;10.078;2024-02-26T06:32:58;15.50;;;15.50;;
15486;SDS011;7845;53.698;10.078;2024-02-26T06:35:24;21.00;;;18.50;;
15486;SDS011;7845;53.698;10.078;2024-02-26T06:37:49;21.75;;;19.50;;
15486;SDS011;7845;53.698;10.078;2024-02-26T06:40:17;21.25;;;15.50;;
15486;SDS011;7845;53.698;10.078;2024-02-26T06:42:43;12.00;;;12.00;;
15486;SDS011;7845;53.698;10.078;2024-02-26T06:45:09;14.00;;;13.00;;
15486;SDS011;7845;53.698;10.078;2024-02-26T06:47:34;23.50;;;21.50;;
15486;SDS011;7845;53.698;10.078;2024-02-26T06:49:59;19.50;;;18.75;;
15486;SDS011;7845;53.698;10.078;2024-02-26T06:52:25;12.75;;;12.00;;
15486;SDS011;7845;53.698;10.078;2024-02-26T06:54:51;15.50;;;13.00;;
15486;SDS011;7845;53.698;10.078;2024-02-26T06:57:17;15.75;;;15.50;;
15486;SDS011;7845;53.698;10.078;2024-02-26T06:59:43;17.75;;;16.50;;
15486;SDS011;7845;53.698;10.078;2024-02-26T07:02:11;21.50;;;18.00;;
15486;SDS011;7845;53.698;10.078;2024-02-26T07:04:37;16.00;;;15.50;;
15486;SDS011;7845;53.698;10.078;2024-02-26T07:07:02;18.50;;;17.00;;
15486;SDS011;7845;53.698;10.078;2024-02-26T07:09:28;16.00;;;13.00;;
15486;SDS011;7845;53.698;10.078;2024-02-26T07:11:53;35.00;;;24.75;;
15486;SDS011;7845;53.698;10.078;2024-02-26T07:14:18;21.00;;;18.50;;
15486;SDS011;7845;53.698;10.078;2024-02-26T07:16:44;17.00;;;15.75;;
15486;SDS011;7845;53.698;10.078;2024-02-26T07:19:09;23.75;;;19.50;;
15486;SDS011;7845;53.698;10.078;2024-02-26T07:21:34;19.75;;;18.75;;
15486;SDS011;7845;53.698;10.078;2024-02-26T07:24:00;21.25;;;19.50;;
15486;SDS011;7845;53.698;10.078;2024-02-26T07:26:25;25.25;;;20.00;;
15486;SDS011;7845;53.698;10.078;2024-02-26T07:28:51;19.00;;;16.00;;
15486;SDS011;7845;53.698;10.078;2024-02-26T07:31:20;22.00;;;21.50;;
15486;SDS011;7845;53.698;10.078;2024-02-26T07:33:45;15.50;;;13.00;;
15486;SDS011;7845;53.698;10.078;2024-02-26T07:36:10;15.00;;;12.75;;
15486;SDS011;7845;53.698;10.078;2024-02-26T07:38:37;20.25;;;16.75;;
15486;SDS011;7845;53.698;10.078;2024-02-26T07:41:02;24.75;;;16.25;;
15486;SDS011;7845;53.698;10.078;2024-02-26T07:43:28;17.50;;;16.50;;
15486;SDS011;7845;53.698;10.078;2024-02-26T07:45:53;17.25;;;15.50;;
15486;SDS011;7845;53.698;10.078;2024-02-26T07:48:18;17.50;;;15.50;;
15486;SDS011;7845;53.698;10.078;2024-02-26T07:50:44;21.75;;;18.50;;
15486;SDS011;7845;53.698;10.078;2024-02-26T07:53:09;15.00;;;15.00;;
15486;SDS011;7845;53.698;10.078;2024-02-26T07:55:35;19.25;;;16.50;;
15486;SDS011;7845;53.698;10.078;2024-02-26T07:58:00;19.00;;;16.00;;
15486;SDS011;7845;53.698;10.078;2024-02-26T08:00:25;16.50;;;15.25;;
15486;SDS011;7845;53.698;10.078;2024-02-26T08:02:51;12.50;;;12.00;;
15486;SDS011;7845;53.698;10.078;2024-02-26T08:05:16;19.00;;;18.25;;
15486;SDS011;7845;53.698;10.078;2024-02-26T08:07:41;15.00;;;12.50;;
15486;SDS011;7845;53.698;10.078;2024-02-26T08:10:07;18.25;;;16.50;;
15486;SDS011;7845;53.698;10.078;2024-02-26T08:12:32;15.75;;;14.00;;
15486;SDS011;7845;53.698;10.078;2024-02-26T08:14:58;19.25;;;16.25;;
15486;SDS011;7845;53.698;10.078;2024-02-26T08:17:23;18.00;;;15.75;;
15486;SDS011;7845;53.698;10.078;2024-02-26T08:19:49;23.25;;;20.00;;
15486;SDS011;7845;53.698;10.078;2024-02-26T08:22:14;15.75;;;15.25;;
15486;SDS011;7845;53.698;10.078;2024-02-26T08:24:41;17.25;;;15.00;;
15486;SDS011;7845;53.698;10.078;2024-02-26T08:27:07;15.00;;;13.00;;
15486;SDS011;7845;53.698;10.078;2024-02-26T08:29:32;18.75;;;16.50;;
15486;SDS011;7845;53.698;10.078;2024-02-26T08:31:57;15.75;;;14.00;;
15486;SDS011;7845;53.698;10.078;2024-02-26T08:34:23;9.00;;;9.00;;
15486;SDS011;7845;53.698;10.078;2024-02-26T08:36:48;23.25;;;18.75;;
15486;SDS011;7845;53.698;10.078;2024-02-26T08:39:14;24.25;;;20.75;;
15486;SDS011;7845;53.698;10.078;2024-02-26T08:41:39;17.50;;;14.50;;
15486;SDS011;7845;53.698;10.078;2024-02-26T08:44:04;17.50;;;15.75;;
15486;SDS011;7845;53.698;10.078;2024-02-26T08:46:30;15.75;;;15.00;;
15486;SDS011;7845;53.698;10.078;2024-02-26T08:48:56;14.50;;;13.50;;
15486;SDS011;7845;53.698;10.078;2024-02-26T08:51:21;15.00;;;12.75;;
15486;SDS011;7845;53.698;10.078;2024-02-26T08:53:46;19.25;;;16.25;;
15486;SDS011;7845;53.698;10.078;2024-02-26T08:56:12;17.25;;;15.00;;
15486;SDS011;7845;53.698;10.078;2024-02-26T08:58:41;15.75;;;14.50;;
15486;SDS011;7845;53.698;10.078;2024-02-26T09:01:07;18.75;;;18.25;;
15486;SDS011;7845;53.698;10.078;2024-02-26T09:03:32;15.50;;;15.25;;
15486;SDS011;7845;53.698;10.078;2024-02-26T09:05:57;16.00;;;12.75;;
15486;SDS011;7845;53.698;10.078;2024-02-26T09:08:23;20.00;;;18.00;;
15486;SDS011;7845;53.698;10.078;2024-02-26T09:10:49;17.00;;;15.25;;
15486;SDS011;7845;53.698;10.078;2024-02-26T09:13:14;24.75;;;15.75;;
15486;SDS011;7845;53.698;10.078;2024-02-26T09:15:40;15.25;;;14.75;;
15486;SDS011;7845;53.698;10.078;2024-02-26T09:18:05;18.50;;;16.25;;
15486;SDS011;7845;53.698;10.078;2024-02-26T09:20:31;21.75;;;18.75;;
15486;SDS011;7845;53.698;10.078;2024-02-26T09:22:56;17.00;;;14.50;;
15486;SDS011;7845;53.698;10.078;2024-02-26T09:25:21;12.75;;;12.00;;
15486;SDS011;7845;53.698;10.078;2024-02-26T09:27:46;12.00;;;8.50;;
15486;SDS011;7845;53.698;10.078;2024-02-26T09:30:12;15.25;;;14.50;;
15486;SDS011;7845;53.698;10.078;2024-02-26T09:32:39;20.50;;;19.00;;
15486;SDS011;7845;53.698;10.078;2024-02-26T09:35:08;17.50;;;15.75;;
15486;SDS011;7845;53.698;10.078;2024-02-26T09:37:33;16.50;;;15.25;;
15486;SDS011;7845;53.698;10.078;2024-02-26T09:39:59;23.00;;;16.50;;
15486;SDS011;7845;53.698;10.078;2024-02-26T09:42:25;19.00;;;18.50;;
15486;SDS011;7845;53.698;10.078;2024-02-26T09:44:51;16.33;;;15.33;;
15486;SDS011;7845;53.698;10.078;2024-02-26T09:47:25;16.50;;;16.00;;
15486;SDS011;7845;53.698;10.078;2024-02-26T09:49:53;17.33;;;17.00;;
15486;SDS011;7845;53.698;10.078;2024-02-26T09:52:21;18.67;;;17.33;;
15486;SDS011;7845;53.698;10.078;2024-02-26T09:54:46;9.00;;;9.00;;
15486;SDS011;7845;53.698;10.078;2024-02-26T09:57:12;19.00;;;19.00;;
15486;SDS011;7845;53.698;10.078;2024-02-26T09:59:41;22.00;;;21.33;;
15486;SDS011;7845;53.698;10.078;2024-02-26T10:02:08;20.33;;;16.00;;
15486;SDS011;7845;53.698;10.078;2024-02-26T10:04:37;21.00;;;19.00;;
15486;SDS011;7845;53.698;10.078;2024-02-26T10:07:04;23.00;;;20.67;;
15486;SDS011;7845;53.698;10.078;2024-02-26T10:09:35;14.67;;;14.33;;
15486;SDS011;7845;53.698;10.078;2024-02-26T10:12:00;19.67;;;17.67;;
15486;SDS011;7845;53.698;10.078;2024-02-26T10:14:26;24.00;;;21.67;;
15486;SDS011;7845;53.698;10.078;2024-02-26T10:16:51;21.67;;;20.33;;
15486;SDS011;7845;53.698;10.078;2024-02-26T10:19:27;22.33;;;22.00;;
15486;SDS011;7845;53.698;10.078;2024-02-26T10:21:57;14.75;;;13.50;;
15486;SDS011;7845;53.698;10.078;2024-02-26T10:24:24;15.00;;;13.67;;
15486;SDS011;7845;53.698;10.078;2024-02-26T10:26:50;19.00;;;13.33;;
15486;SDS011;7845;53.698;10.078;2024-02-26T10:29:16;24.00;;;23.67;;
15486;SDS011;7845;53.698;10.078;2024-02-26T10:31:43;27.00;;;21.67;;
15486;SDS011;7845;53.698;10.078;2024-02-26T10:34:08;27.00;;;22.33;;
15486;SDS011;7845;53.698;10.078;2024-02-26T10:36:34;22.00;;;20.67;;
15486;SDS011;7845;53.698;10.078;2024-02-26T10:39:01;23.33;;;22.33;;
15486;SDS011;7845;53.698;10.078;2024-02-26T10:41:27;20.33;;;16.67;;
15486;SDS011;7845;53.698;10.078;2024-02-26T10:43:52;30.67;;;24.00;;
15486;SDS011;7845;53.698;10.078;2024-02-26T10:46:19;24.33;;;23.00;;
15486;SDS011;7845;53.698;10.078;2024-02-26T10:48:50;20.67;;;19.00;;
15486;SDS011;7845;53.698;10.078;2024-02-26T10:51:17;18.33;;;18.33;;
15486;SDS011;7845;53.698;10.078;2024-02-26T10:53:50;24.33;;;21.00;;
15486;SDS011;7845;53.698;10.078;2024-02-26T10:56:21;26.00;;;20.67;;
15486;SDS011;7845;53.698;10.078;2024-02-26T10:58:52;21.67;;;21.00;;
15486;SDS011;7845;53.698;10.078;2024-02-26T11:01:17;22.67;;;20.00;;
15486;SDS011;7845;53.698;10.078;2024-02-26T11:03:44;22.33;;;18.33;;
15486;SDS011;7845;53.698;10.078;2024-02-26T11:06:10;22.33;;;20.00;;
15486;SDS011;7845;53.698;10.078;2024-02-26T11:08:37;26.33;;;23.00;;
15486;SDS011;7845;53.698;10.078;2024-02-26T11:11:03;20.00;;;19.33;;
15486;SDS011;7845;53.698;10.078;2024-02-26T11:13:30;20.33;;;19.00;;
15486;SDS011;7845;53.698;10.078;2024-02-26T11:15:56;22.00;;;19.33;;
15486;SDS011;7845;53.698;10.078;2024-02-26T11:18:22;23.33;;;21.33;;
15486;SDS011;7845;53.698;10.078;2024-02-26T11:20:51;20.75;;;19.50;;
15486;SDS011;7845;53.698;10.078;2024-02-26T11:23:19;18.75;;;16.00;;
15486;SDS011;7845;53.698;10.078;2024-02-26T11:25:45;26.67;;;23.67;;
15486;SDS011;7845;53.698;10.078;2024-02-26T11:28:14;23.00;;;21.67;;
15486;SDS011;7845;53.698;10.078;2024-02-26T11:30:43;25.33;;;22.33;;
15486;SDS011;7845;53.698;10.078;2024-02-26T11:33:11;26.50;;;22.00;;
15486;SDS011;7845;53.698;10.078;2024-02-26T11:35:38;22.25;;;21.50;;
15486;SDS011;7845;53.698;10.078;2024-02-26T11:38:04;26.25;;;24.50;;
15486;SDS011;7845;53.698;10.078;2024-02-26T11:40:31;19.25;;;18.00;;
15486;SDS011;7845;53.698;10.078;2024-02-26T11:42:57;25.00;;;22.00;;
15486;SDS011;7845;53.698;10.078;2024-02-26T11:46:08;21.50;;;18.00;;
15486;SDS011;7845;53.698;10.078;2024-02-26T11:48:16;22.50;;;19.75;;
15486;SDS011;7845;53.698;10.078;2024-02-26T11:50:49;32.00;;;30.50;;
15486;SDS011;7845;53.698;10.078;2024-02-26T11:53:23;27.00;;;24.75;;
15486;SDS011;7845;53.698;10.078;2024-02-26T11:56:03;27.50;;;25.50;;
15486;SDS011;7845;53.698;10.078;2024-02-26T11:58:45;21.75;;;17.50;;
15486;SDS011;7845;53.698;10.078;2024-02-26T12:04:01;15.25;;;15.00;;
15486;SDS011;7845;53.698;10.078;2024-02-26T12:06:27;13.50;;;13.50;;
15486;SDS011;7845;53.698;10.078;2024-02-26T12:08:53;19.75;;;16.25;;
15486;SDS011;7845;53.698;10.078;2024-02-26T12:11:20;18.25;;;17.75;;
15486;SDS011;7845;53.698;10.078;2024-02-26T12:13:46;19.00;;;18.00;;
15486;SDS011;7845;53.698;10.078;2024-02-26T12:16:14;18.75;;;18.00;;
15486;SDS011;7845;53.698;10.078;2024-02-26T12:19:04;17.25;;;16.75;;
15486;SDS011;7845;53.698;10.078;2024-02-26T12:21:31;18.00;;;16.75;;
15486;SDS011;7845;53.698;10.078;2024-02-26T12:24:06;17.00;;;15.25;;
15486;SDS011;7845;53.698;10.078;2024-02-26T12:26:34;24.75;;;23.50;;
15486;SDS011;7845;53.698;10.078;2024-02-26T12:29:00;21.00;;;18.33;;
15486;SDS011;7845;53.698;10.078;2024-02-26T12:31:25;19.33;;;17.33;;
15486;SDS011;7845;53.698;10.078;2024-02-26T12:33:53;19.75;;;17.25;;
15486;SDS011;7845;53.698;10.078;2024-02-26T12:36:20;11.50;;;10.00;;
15486;SDS011;7845;53.698;10.078;2024-02-26T12:38:45;21.00;;;20.75;;
15486;SDS011;7845;53.698;10.078;2024-02-26T12:41:11;14.33;;;11.33;;
15486;SDS011;7845;53.698;10.078;2024-02-26T12:43:36;21.00;;;18.33;;
15486;SDS011;7845;53.698;10.078;2024-02-26T12:46:03;17.67;;;14.33;;
15486;SDS011;7845;53.698;10.078;2024-02-26T12:48:29;20.75;;;17.75;;
15486;SDS011;7845;53.698;10.078;2024-02-26T12:50:54;15.67;;;15.33;;
15486;SDS011;7845;53.698;10.078;2024-02-26T12:53:21;15.75;;;15.50;;
15486;SDS011;7845;53.698;10.078;2024-02-26T12:55:47;13.67;;;8.00;;
15486;SDS011;7845;53.698;10.078;2024-02-26T12:58:12;20.00;;;18.00;;
15486;SDS011;7845;53.698;10.078;2024-02-26T13:00:39;18.75;;;15.75;;
15486;SDS011;7845;53.698;10.078;2024-02-26T13:03:05;20.50;;;19.00;;
15486;SDS011;7845;53.698;10.078;2024-02-26T13:05:31;16.00;;;15.33;;
15486;SDS011;7845;53.698;10.078;2024-02-26T13:07:58;20.75;;;19.00;;
15486;SDS011;7845;53.698;10.078;2024-02-26T13:10:23;18.00;;;18.00;;
15486;SDS011;7845;53.698;10.078;2024-02-26T13:12:50;19.75;;;19.75;;
15486;SDS011;7845;53.698;10.078;2024-02-26T13:15:16;16.00;;;15.67;;
15486;SDS011;7845;53.698;10.078;2024-02-26T13:17:43;14.25;;;14.25;;
15486;SDS011;7845;53.698;10.078;2024-02-26T13:20:09;15.25;;;14.25;;
15486;SDS011;7845;53.698;10.078;2024-02-26T13:22:35;21.00;;;19.67;;
15486;SDS011;7845;53.698;10.078;2024-02-26T13:25:01;22.00;;;19.00;;
15486;SDS011;7845;53.698;10.078;2024-02-26T13:27:29;17.00;;;15.50;;
15486;SDS011;7845;53.698;10.078;2024-02-26T13:30:09;18.67;;;18.67;;
15486;SDS011;7845;53.698;10.078;2024-02-26T13:32:36;16.50;;;15.75;;
15486;SDS011;7845;53.698;10.078;2024-02-26T13:37:36;17.25;;;16.75;;
15486;SDS011;7845;53.698;10.078;2024-02-26T13:40:05;12.25;;;11.75;;
15486;SDS011;7845;53.698;10.078;2024-02-26T13:42:32;19.25;;;17.75;;
15486;SDS011;7845;53.698;10.078;2024-02-26T13:44:58;16.75;;;16.00;;
15486;SDS011;7845;53.698;10.078;2024-02-26T13:47:24;18.33;;;17.00;;
15486;SDS011;7845;53.698;10.078;2024-02-26T13:49:49;16.67;;;14.33;;
15486;SDS011;7845;53.698;10.078;2024-02-26T13:52:15;22.00;;;17.67;;
15486;SDS011;7845;53.698;10.078;2024-02-26T13:54:40;18.67;;;16.33;;
15486;SDS011;7845;53.698;10.078;2024-02-26T13:57:06;17.33;;;15.33;;
15486;SDS011;7845;53.698;10.078;2024-02-26T13:59:32;21.00;;;18.00;;
15486;SDS011;7845;53.698;10.078;2024-02-26T14:01:57;20.33;;;19.67;;
15486;SDS011;7845;53.698;10.078;2024-02-26T14:04:23;20.33;;;18.33;;
15486;SDS011;7845;53.698;10.078;2024-02-26T14:06:48;17.67;;;14.00;;
15486;SDS011;7845;53.698;10.078;2024-02-26T14:09:13;17.67;;;16.67;;
15486;SDS011;7845;53.698;10.078;2024-02-26T14:11:43;13.00;;;10.75;;
15486;SDS011;7845;53.698;10.078;2024-02-26T14:14:13;15.00;;;14.75;;
15486;SDS011;7845;53.698;10.078;2024-02-26T14:16:39;23.67;;;17.33;;
15486;SDS011;7845;53.698;10.078;2024-02-26T14:19:04;17.33;;;17.00;;
15486;SDS011;7845;53.698;10.078;2024-02-26T14:21:29;18.00;;;16.67;;
15486;SDS011;7845;53.698;10.078;2024-02-26T14:23:55;18.33;;;16.33;;